Prairie Hill, Texas
Current Conditions -  °F | °C
As of 1:35 PM on Sunday 21 Dec 2014 (Local Time) from KLXY Reporting Station
Overcast Overcast  
Wind Chill: 51°   Ceiling: 1400
Heat Index: 51°   Visibility: 10mi
Dew Point: 46°   Wind: 9mph
Humidity: 83%   Direction: 180°S
Pressure: 29.97"   Gusts: NA
Location:  31.66°N, 96.79°W
Report Text: KLXY 211935Z AUTO 18008KT 10SM OVC014 11/08 A2997 RMK AO2 T01050077
Loading
Personal Weather Stations






























Interactive Weather Map New forecast layout! Learn more

10-Day Weather Forecast

Advertisements
Track Severe Weather on mobile